»·PEaware :: N2844Q KMHV-KBFL

N2844Q :: KMHV-KBFL

FLIGHT INFORMATION

Flight Status: Arrived
Operator: Privately registered:
United States
More flights under this callsign
Pilot: Alex B. (44436)
Aircraft: CESSNA 172 SKYHAWK
(C172)
More flights by this aircraft type
Origin: KMHV Mojave
United States
Destination: KBFL Meadows
United States
More flights between these airports :: More routes between these airports
Route:
File this flight plan on PilotEdge
Remarks:
Altitude:
(Current/Filed)
6,500ft
Speed:
(Current/Filed)
120kts
Departed: 17-Jul-23 03:54 PM
Arrived: 17-Jul-23 04:25 PM
Distance/Time
Traveled:
49nm/0:31
Distance/Time
To Go:
Arrived

Flight Plot

Page will automatically refresh every two minutes.

Flight plan parsing failed; only flown route is shown


Map Options




Map Legend


Flown Route
Filed Route
Departure Airport
Arrival Airport
Navaid (VOR, NDB)
Fix

Horizontal Profiles

Position Reports

Time Latitude Longitude Heading Altitude Ground
Speed
17-Jul-23 15:46 35.057215 -118.151345 277 2755ft 0kts
17-Jul-23 15:47 35.057215 -118.151345 277 2755ft 0kts
17-Jul-23 15:48 35.057231 -118.151471 299 2757ft 0kts
17-Jul-23 15:49 35.057595 -118.149059 92 2751ft 6kts
17-Jul-23 15:50 35.057615 -118.145770 89 2748ft 22kts
17-Jul-23 15:51 35.058349 -118.142570 358 2739ft 0kts
17-Jul-23 15:52 35.058349 -118.142570 358 2739ft 0kts
17-Jul-23 15:53 35.059216 -118.149093 268 2766ft 62kts
17-Jul-23 15:54 35.057959 -118.170793 256 3427ft 61kts
17-Jul-23 15:55 35.064972 -118.196562 286 3783ft 84kts
17-Jul-23 15:56 35.076401 -118.215510 292 4172ft 63kts
17-Jul-23 15:57 35.089087 -118.236535 298 4490ft 83kts
17-Jul-23 15:58 35.101641 -118.257952 293 4945ft 72kts
17-Jul-23 15:59 35.112922 -118.280995 289 5504ft 86kts
17-Jul-23 16:00 35.124276 -118.307182 291 6349ft 90kts
17-Jul-23 16:02 35.136290 -118.335846 291 6640ft 102kts
17-Jul-23 16:03 35.149692 -118.367978 293 6642ft 107kts
17-Jul-23 16:04 35.163094 -118.400131 292 6633ft 103kts
17-Jul-23 16:05 35.175556 -118.430165 293 6623ft 96kts
17-Jul-23 16:06 35.187987 -118.460102 295 6631ft 105kts
17-Jul-23 16:07 35.201743 -118.493237 294 6642ft 110kts
17-Jul-23 16:08 35.214982 -118.525195 294 6772ft 107kts
17-Jul-23 16:09 35.228658 -118.558207 294 6753ft 108kts
17-Jul-23 16:10 35.242182 -118.590891 294 6722ft 105kts
17-Jul-23 16:11 35.255447 -118.622995 294 6696ft 105kts
17-Jul-23 16:12 35.269184 -118.656262 294 6672ft 110kts
17-Jul-23 16:13 35.282751 -118.689161 294 6643ft 108kts
17-Jul-23 16:14 35.296432 -118.722368 293 6612ft 108kts
17-Jul-23 16:15 35.310019 -118.755360 293 6531ft 108kts
17-Jul-23 16:16 35.324586 -118.790774 294 6133ft 124kts
17-Jul-23 16:17 35.340700 -118.829973 296 5392ft 133kts
17-Jul-23 16:18 35.357439 -118.870755 299 4469ft 134kts
17-Jul-23 16:19 35.373505 -118.909966 301 3517ft 108kts
17-Jul-23 16:20 35.387285 -118.943513 301 2611ft 128kts
17-Jul-23 16:21 35.372730 -118.981482 253 1717ft 138kts
17-Jul-23 16:22 35.394181 -119.008310 307 1503ft 114kts
17-Jul-23 16:23 35.412324 -119.030651 315 848ft 87kts
17-Jul-23 16:24 35.425129 -119.045755 314 560ft 61kts
17-Jul-23 16:25 35.434881 -119.057444 316 495ft 17kts
17-Jul-23 16:26 35.436331 -119.057547 76 492ft 0kts
17-Jul-23 16:27 35.432103 -119.051868 134 482ft 35kts
17-Jul-23 16:28 35.431977 -119.050082 232 484ft 0kts
17-Jul-23 16:28 35.431977 -119.050082 232 484ft 0kts
17-Jul-23 16:30 35.431977 -119.050082 232 484ft 0kts
17-Jul-23 16:31 35.431977 -119.050082 232 484ft 0kts
17-Jul-23 16:32 35.431977 -119.050082 232 484ft 0kts
17-Jul-23 16:33 35.431977 -119.050082 232 484ft 0kts
17-Jul-23 16:33 35.431977 -119.050082 232 484ft 0kts
17-Jul-23 16:34 35.431977 -119.050082 232 484ft 0kts
17-Jul-23 16:36 35.431977 -119.050082 232 484ft 0kts
17-Jul-23 16:37 35.431977 -119.050082 232 484ft 0kts
17-Jul-23 16:37 35.431977 -119.050082 232 484ft 0kts
17-Jul-23 16:38 35.431977 -119.050082 232 484ft 0kts

Navigation Log

Ident Type
Flight plan parsing failed, navigation log unavailable